Time;durP1;ratioP1;P1;durP2;ratioP2;P2;SDS_P1;SDS_P2;PMS_P1;PMS_P2;Temp;Humidity;BMP_temperature;BMP_pressure;BME280_temperature;BME280_humidity;BME280_pressure;Samples;Min_cycle;Max_cycle;Signal;HPM_P1;HPM_P2
2023/05/21 00:00:53;;;;;;;10.00;5.95;;;12.90;99.90;;;;;;5121187;27;20507;-54
2023/05/21 00:03:19;;;;;;;10.65;6.20;;;12.90;99.90;;;;;;5122309;27;20399;-56
2023/05/21 00:05:48;;;;;;;8.32;5.75;;;12.90;99.90;;;;;;5114387;27;20372;-54
2023/05/21 00:08:16;;;;;;;10.20;6.38;;;12.90;99.90;;;;;;5122823;27;20035;-54
2023/05/21 00:10:42;;;;;;;10.05;5.85;;;12.90;99.90;;;;;;5113966;27;20446;-56
2023/05/21 00:13:09;;;;;;;9.90;5.80;;;12.90;99.90;;;;;;5112906;27;20441;-54
2023/05/21 00:15:36;;;;;;;10.48;6.60;;;12.90;99.90;;;;;;5115264;27;20438;-54
2023/05/21 00:18:04;;;;;;;12.60;7.18;;;12.80;99.90;;;;;;5133585;27;20072;-54
2023/05/21 00:20:31;;;;;;;12.10;7.03;;;12.80;99.90;;;;;;5115178;27;20044;-54
2023/05/21 00:23:01;;;;;;;12.15;7.05;;;12.80;99.90;;;;;;5127609;27;20038;-55
2023/05/21 00:25:28;;;;;;;13.40;8.05;;;12.70;99.90;;;;;;5133547;27;20065;-56
2023/05/21 00:27:55;;;;;;;10.55;6.35;;;12.70;99.90;;;;;;5134007;27;20037;-54
2023/05/21 00:30:22;;;;;;;10.32;6.60;;;12.70;99.90;;;;;;5120992;27;20062;-54
2023/05/21 00:32:48;;;;;;;16.15;7.10;;;12.70;99.90;;;;;;5099950;27;20031;-54
2023/05/21 00:35:16;;;;;;;13.27;7.50;;;12.70;99.90;;;;;;5115679;27;20046;-54
2023/05/21 00:37:42;;;;;;;14.93;8.35;;;12.70;99.90;;;;;;5113382;28;20442;-55
2023/05/21 00:40:10;;;;;;;21.00;9.27;;;12.70;99.90;;;;;;5115172;27;20487;-55
2023/05/21 00:42:40;;;;;;;18.40;9.15;;;12.60;99.90;;;;;;5095454;27;20085;-54
2023/05/21 00:45:07;;;;;;;15.27;8.60;;;12.60;99.90;;;;;;5095077;28;20069;-54
2023/05/21 00:47:34;;;;;;;;;;;12.60;99.90;;;;;;5102564;28;20094;-54
2023/05/21 00:50:03;;;;;;;11.57;6.57;;;12.50;99.90;;;;;;5115724;27;19972;-54
2023/05/21 00:52:30;;;;;;;7.85;6.07;;;12.50;99.90;;;;;;5116264;27;20043;-57
2023/05/21 00:54:57;;;;;;;10.90;6.55;;;12.50;99.90;;;;;;5120123;27;20053;-54
2023/05/21 00:57:25;;;;;;;11.38;6.47;;;12.50;99.90;;;;;;5132951;27;20046;-54
2023/05/21 00:59:53;;;;;;;9.48;6.20;;;12.40;99.90;;;;;;5129689;27;20097;-56
2023/05/21 01:02:22;;;;;;;9.15;6.40;;;12.40;99.90;;;;;;5126362;27;20047;-56
2023/05/21 01:04:52;;;;;;;11.68;5.80;;;12.40;99.90;;;;;;5127798;27;20035;-54
2023/05/21 01:07:20;;;;;;;10.18;6.68;;;12.30;99.90;;;;;;5125446;27;20078;-54
2023/05/21 01:09:47;;;;;;;13.52;6.60;;;12.30;99.90;;;;;;5124785;27;20068;-54
2023/05/21 01:12:14;;;;;;;10.32;6.22;;;12.30;99.90;;;;;;5113319;28;20046;-54
2023/05/21 01:14:41;;;;;;;11.88;6.85;;;12.30;99.90;;;;;;5114866;27;20051;-54
2023/05/21 01:17:09;;;;;;;14.98;7.32;;;12.40;99.90;;;;;;5127463;27;20047;-54
2023/05/21 01:19:36;;;;;;;11.45;7.18;;;12.40;99.90;;;;;;5108510;28;20063;-56
2023/05/21 01:22:05;;;;;;;13.25;7.20;;;12.30;99.90;;;;;;5113380;28;20104;-54
2023/05/21 01:24:33;;;;;;;13.10;7.63;;;12.30;99.90;;;;;;5112654;27;20098;-55
2023/05/21 01:27:01;;;;;;;;;;;12.20;99.90;;;;;;5112509;28;20088;-55
2023/05/21 01:29:28;;;;;;;10.98;6.80;;;12.20;99.90;;;;;;5103586;27;19924;-54
2023/05/21 01:32:34;;;;;;;13.07;7.88;;;12.10;99.90;;;;;;5113873;27;20031;-53
2023/05/21 01:35:06;;;;;;;10.63;7.13;;;12.10;99.90;;;;;;5106741;28;20491;-54
2023/05/21 01:37:45;;;;;;;14.35;7.32;;;12.00;99.90;;;;;;5095489;28;20039;-56
2023/05/21 01:40:38;;;;;;;11.57;7.20;;;12.00;99.90;;;;;;5103152;28;20032;-54
2023/05/21 01:43:07;;;;;;;10.98;7.10;;;11.90;99.90;;;;;;5074127;28;20522;-54
2023/05/21 01:45:37;;;;;;;16.58;6.25;;;11.90;99.90;;;;;;5116824;27;20043;-54
2023/05/21 01:48:06;;;;;;;12.05;7.57;;;11.90;99.90;;;;;;5092333;27;20076;-55
2023/05/21 01:50:36;;;;;;;12.02;6.75;;;11.90;99.90;;;;;;5105656;27;20058;-56
2023/05/21 01:53:04;;;;;;;11.80;7.07;;;11.90;99.90;;;;;;5132434;27;20062;-53
2023/05/21 01:55:31;;;;;;;12.25;7.47;;;12.00;99.90;;;;;;5097486;28;20036;-57
2023/05/21 01:57:59;;;;;;;13.80;8.05;;;11.90;99.90;;;;;;5107902;27;20039;-54
2023/05/21 02:00:29;;;;;;;16.85;8.40;;;11.90;99.90;;;;;;5113953;27;20130;-54
2023/05/21 02:02:57;;;;;;;13.82;8.57;;;11.90;99.90;;;;;;5113513;27;20527;-54
2023/05/21 02:05:24;;;;;;;12.23;8.13;;;11.80;99.90;;;;;;5105783;28;20430;-54
2023/05/21 02:07:51;;;;;;;13.27;7.47;;;11.80;99.90;;;;;;5108516;28;20530;-54
2023/05/21 02:10:18;;;;;;;13.43;7.60;;;11.80;99.90;;;;;;5102033;28;20894;-54
2023/05/21 02:12:45;;;;;;;10.52;6.93;;;11.70;99.90;;;;;;5131793;27;20027;-54
2023/05/21 02:15:16;;;;;;;13.27;7.63;;;11.60;99.90;;;;;;5118166;27;20046;-54
2023/05/21 02:17:45;;;;;;;12.70;7.93;;;11.60;99.90;;;;;;5100263;27;20052;-54
2023/05/21 02:20:12;;;;;;;13.90;7.78;;;11.50;99.90;;;;;;5119392;27;20040;-54
2023/05/21 02:22:41;;;;;;;13.88;7.72;;;11.50;99.90;;;;;;5110972;28;20039;-56
2023/05/21 02:25:09;;;;;;;12.88;8.35;;;11.40;99.90;;;;;;5108187;28;20046;-57
2023/05/21 02:27:37;;;;;;;17.10;9.18;;;11.40;99.90;;;;;;5094239;28;20503;-56
2023/05/21 02:30:14;;;;;;;16.88;8.80;;;11.40;99.90;;;;;;5105681;28;20499;-55
2023/05/21 02:32:41;;;;;;;11.13;7.28;;;11.50;99.90;;;;;;5124107;27;20058;-55
2023/05/21 02:35:10;;;;;;;11.27;6.97;;;11.40;99.90;;;;;;5124792;27;20376;-54
2023/05/21 02:37:39;;;;;;;12.68;7.05;;;11.40;99.90;;;;;;5105406;27;20069;-54
2023/05/21 02:40:08;;;;;;;12.30;6.20;;;11.40;99.90;;;;;;5113334;27;20035;-54
2023/05/21 02:42:38;;;;;;;15.00;7.88;;;11.30;99.90;;;;;;5095105;28;20133;-54
2023/05/21 02:45:10;;;;;;;9.95;6.85;;;11.30;99.90;;;;;;5101794;28;20113;-54
2023/05/21 02:47:39;;;;;;;13.15;8.00;;;11.30;99.90;;;;;;5101044;28;20059;-55
2023/05/21 02:50:07;;;;;;;15.20;8.23;;;11.40;99.90;;;;;;5105513;28;20100;-54
2023/05/21 02:52:41;;;;;;;14.45;8.55;;;11.40;99.90;;;;;;5110902;27;20042;-53
2023/05/21 02:55:08;;;;;;;15.18;7.78;;;11.50;99.90;;;;;;5110284;28;20050;-54
2023/05/21 02:57:35;;;;;;;;;;;11.50;99.90;;;;;;5100903;28;20091;-54
2023/05/21 03:00:04;;;;;;;10.32;7.60;;;11.50;99.90;;;;;;5104955;28;20273;-54
2023/05/21 03:02:31;;;;;;;14.38;8.82;;;11.50;99.90;;;;;;5110065;28;20100;-53
2023/05/21 03:04:59;;;;;;;16.92;9.75;;;11.50;99.90;;;;;;5109567;28;20039;-55
2023/05/21 03:07:26;;;;;;;16.70;9.15;;;11.40;99.90;;;;;;5119991;28;20723;-54
2023/05/21 03:09:53;;;;;;;17.65;10.15;;;11.40;99.90;;;;;;5101788;28;20445;-54
2023/05/21 03:12:19;;;;;;;16.77;8.95;;;11.40;99.90;;;;;;5109060;28;20043;-54
2023/05/21 03:14:48;;;;;;;14.88;8.45;;;11.60;99.90;;;;;;5108387;28;20126;-55
2023/05/21 03:17:15;;;;;;;12.73;8.13;;;11.40;99.90;;;;;;5101894;28;20043;-53
2023/05/21 03:19:43;;;;;;;15.48;8.20;;;11.40;99.90;;;;;;5112782;27;20075;-53
2023/05/21 03:22:10;;;;;;;13.27;8.63;;;11.40;99.90;;;;;;5117351;27;20031;-55
2023/05/21 03:24:38;;;;;;;14.95;8.32;;;11.40;99.90;;;;;;5133504;27;20070;-54
2023/05/21 03:27:05;;;;;;;14.52;8.43;;;11.40;99.90;;;;;;5105679;28;20483;-53
2023/05/21 03:29:33;;;;;;;15.15;7.68;;;11.30;99.90;;;;;;5093529;27;20079;-54
2023/05/21 03:32:01;;;;;;;12.60;7.93;;;11.20;99.90;;;;;;5105357;28;20047;-54
2023/05/21 03:34:29;;;;;;;16.83;8.48;;;11.20;99.90;;;;;;5112954;27;20043;-55
2023/05/21 03:36:57;;;;;;;13.82;8.68;;;11.10;99.90;;;;;;5136041;27;20027;-55
2023/05/21 03:39:25;;;;;;;16.13;8.75;;;11.10;99.90;;;;;;5106864;28;20403;-54
2023/05/21 03:41:54;;;;;;;17.52;9.40;;;11.10;99.90;;;;;;5108771;27;20567;-54
2023/05/21 03:44:37;;;;;;;16.73;9.68;;;11.10;99.90;;;;;;5107321;28;20063;-54
2023/05/21 03:47:21;;;;;;;14.75;8.30;;;11.10;99.90;;;;;;5108192;27;20503;-54
2023/05/21 03:49:49;;;;;;;18.50;8.88;;;11.40;99.90;;;;;;5105213;28;20138;-53
2023/05/21 03:52:16;;;;;;;17.33;9.23;;;11.10;99.90;;;;;;5111212;27;20503;-56
2023/05/21 03:54:42;;;;;;;14.73;8.70;;;11.10;99.90;;;;;;5116934;27;20043;-54
2023/05/21 03:57:09;;;;;;;15.07;9.10;;;11.10;99.90;;;;;;5124671;27;20038;-54
2023/05/21 03:59:36;;;;;;;19.58;9.75;;;11.10;99.90;;;;;;5105079;28;20130;-53
2023/05/21 04:02:03;;;;;;;16.13;8.98;;;11.10;99.90;;;;;;5102948;27;20035;-53
2023/05/21 04:04:32;;;;;;;13.88;8.38;;;11.10;99.90;;;;;;5098856;28;20059;-54
2023/05/21 04:06:59;;;;;;;14.80;9.57;;;11.10;99.90;;;;;;5112481;28;20048;-54
2023/05/21 04:09:26;;;;;;;14.63;8.95;;;11.10;99.90;;;;;;5100192;28;20047;-54
2023/05/21 04:11:53;;;;;;;14.77;8.57;;;11.20;99.90;;;;;;5115688;27;20510;-57
2023/05/21 04:14:22;;;;;;;16.08;8.40;;;11.20;99.90;;;;;;5126573;27;20452;-55
2023/05/21 04:16:50;;;;;;;19.65;7.70;;;11.30;99.90;;;;;;5114828;27;20067;-56
2023/05/21 04:19:18;;;;;;;12.43;7.97;;;11.30;99.90;;;;;;5116454;27;20062;-54
2023/05/21 04:21:46;;;;;;;13.70;8.48;;;11.40;99.90;;;;;;5115421;27;20070;-54
2023/05/21 04:24:14;;;;;;;10.38;7.32;;;11.40;99.90;;;;;;5116430;27;20126;-56
2023/05/21 04:27:00;;;;;;;13.68;8.18;;;11.50;99.90;;;;;;5107220;27;20525;-55
2023/05/21 04:29:29;;;;;;;13.02;7.63;;;11.60;99.90;;;;;;5109799;28;20047;-55
2023/05/21 04:31:56;;;;;;;14.07;7.47;;;11.60;99.90;;;;;;5102765;28;20044;-53
2023/05/21 04:34:22;;;;;;;10.25;6.97;;;11.60;99.90;;;;;;5126961;27;20039;-53
2023/05/21 04:36:50;;;;;;;10.57;6.88;;;11.70;99.90;;;;;;5116125;27;20050;-54
2023/05/21 04:39:17;;;;;;;13.75;6.97;;;11.70;99.90;;;;;;5109096;28;20055;-54
2023/05/21 04:41:44;;;;;;;11.48;7.80;;;11.80;99.90;;;;;;5102928;27;20047;-57
2023/05/21 04:44:13;;;;;;;13.13;6.75;;;11.80;99.90;;;;;;5106049;27;20092;-54
2023/05/21 04:46:44;;;;;;;9.82;6.82;;;11.90;99.90;;;;;;5107575;27;20104;-54
2023/05/21 04:49:11;;;;;;;11.38;7.03;;;11.90;99.90;;;;;;5110457;28;20088;-54
2023/05/21 04:51:38;;;;;;;11.77;7.70;;;11.80;99.90;;;;;;5124617;27;20062;-53
2023/05/21 04:54:05;;;;;;;11.68;7.20;;;11.80;99.90;;;;;;5102773;28;20043;-54
2023/05/21 04:56:33;;;;;;;12.48;7.18;;;11.90;99.90;;;;;;5112126;27;20092;-54
2023/05/21 04:59:01;;;;;;;13.45;7.43;;;11.90;99.90;;;;;;5111686;27;20480;-53
2023/05/21 05:01:33;;;;;;;14.60;7.85;;;11.90;99.90;;;;;;5111118;27;20089;-54
2023/05/21 05:04:00;;;;;;;14.48;8.15;;;11.90;99.90;;;;;;5103382;28;20046;-54
2023/05/21 05:06:27;;;;;;;12.25;8.38;;;11.80;99.90;;;;;;5111324;27;20054;-57
2023/05/21 05:08:54;;;;;;;15.65;9.10;;;11.80;99.90;;;;;;5115764;27;20062;-54
2023/05/21 05:11:21;;;;;;;15.52;8.52;;;11.80;99.90;;;;;;5113406;27;20088;-54
2023/05/21 05:13:49;;;;;;;15.13;8.60;;;11.90;99.90;;;;;;5114944;27;20035;-54
2023/05/21 05:16:18;;;;;;;17.08;8.80;;;11.90;99.90;;;;;;5119303;27;20563;-54
2023/05/21 05:18:45;;;;;;;15.32;8.13;;;12.00;99.90;;;;;;5111011;27;20053;-56
2023/05/21 05:21:11;;;;;;;13.20;8.48;;;12.10;99.90;;;;;;5099727;27;20043;-54
2023/05/21 05:23:38;;;;;;;13.07;8.30;;;12.20;99.90;;;;;;5105817;28;20043;-54
2023/05/21 05:26:07;;;;;;;17.92;8.77;;;12.40;99.90;;;;;;5114796;27;20138;-55
2023/05/21 05:28:33;;;;;;;12.80;8.52;;;12.40;99.90;;;;;;5114150;27;20513;-54
2023/05/21 05:31:00;;;;;;;18.10;9.00;;;12.50;99.90;;;;;;5105796;27;20134;-54
2023/05/21 05:33:27;;;;;;;17.88;9.45;;;12.60;99.90;;;;;;5112144;27;20039;-54
2023/05/21 05:35:54;;;;;;;13.02;8.27;;;12.60;99.90;;;;;;5097956;27;20044;-55
2023/05/21 05:38:21;;;;;;;17.27;8.07;;;13.00;99.90;;;;;;5114600;27;20043;-53
2023/05/21 05:40:48;;;;;;;14.50;8.52;;;12.90;99.90;;;;;;5103099;28;20047;-54
2023/05/21 05:43:15;;;;;;;16.77;8.55;;;13.00;99.90;;;;;;5105713;27;20043;-54
2023/05/21 05:45:42;;;;;;;19.58;8.73;;;13.10;99.90;;;;;;5114698;27;20125;-56
2023/05/21 05:48:13;;;;;;;11.48;7.93;;;13.20;99.90;;;;;;5114010;27;20070;-54
2023/05/21 05:50:40;;;;;;;13.98;8.35;;;13.30;99.90;;;;;;5106087;27;20399;-53
2023/05/21 05:53:08;;;;;;;11.95;7.47;;;13.40;99.90;;;;;;5100838;28;20047;-55
2023/05/21 05:55:34;;;;;;;13.93;8.77;;;13.60;99.90;;;;;;5106019;27;20043;-55
2023/05/21 05:58:02;;;;;;;18.73;8.65;;;13.70;99.90;;;;;;5110495;27;20395;-57
2023/05/21 06:00:28;;;;;;;18.48;9.18;;;13.80;99.90;;;;;;5101147;27;20043;-54
2023/05/21 06:02:58;;;;;;;14.00;8.20;;;13.80;99.90;;;;;;5105162;27;20465;-56
2023/05/21 06:05:25;;;;;;;;;;;13.70;99.90;;;;;;5099661;28;20047;-54
2023/05/21 06:07:52;;;;;;;14.82;8.52;;;13.70;99.90;;;;;;5108067;28;19950;-54
2023/05/21 06:10:19;;;;;;;12.95;7.45;;;13.80;99.90;;;;;;5102697;28;20071;-54
2023/05/21 06:12:46;;;;;;;10.70;7.60;;;13.90;99.90;;;;;;5120688;27;20399;-54
2023/05/21 06:15:18;;;;;;;;;;;14.10;99.90;;;;;;5107833;27;20043;-53
2023/05/21 06:17:45;;;;;;;11.40;7.47;;;14.10;99.90;;;;;;5106817;27;19919;-54
2023/05/21 06:20:12;;;;;;;14.93;7.85;;;14.20;99.90;;;;;;5107159;27;20039;-56
2023/05/21 06:22:39;;;;;;;11.60;7.68;;;14.40;99.90;;;;;;5113929;27;20038;-54
2023/05/21 06:25:09;;;;;;;12.35;8.05;;;14.50;99.90;;;;;;5112542;27;20407;-54
2023/05/21 06:27:37;;;;;;;13.82;8.10;;;14.70;99.90;;;;;;5110506;27;20142;-57
2023/05/21 06:30:08;;;;;;;15.13;8.20;;;14.90;99.90;;;;;;5109486;28;20046;-56
2023/05/21 06:32:35;;;;;;;13.68;8.13;;;15.10;99.90;;;;;;5113667;27;20049;-54
2023/05/21 06:35:03;;;;;;;14.43;7.97;;;15.40;99.90;;;;;;5104834;27;20092;-57
2023/05/21 06:37:30;;;;;;;10.63;7.45;;;15.50;99.90;;;;;;5113937;27;20043;-54
2023/05/21 06:39:57;;;;;;;12.50;7.88;;;15.60;99.90;;;;;;5112788;27;20058;-54
2023/05/21 06:42:23;;;;;;;10.77;7.32;;;15.90;99.90;;;;;;5132285;27;20102;-56
2023/05/21 06:45:11;;;;;;;10.48;7.20;;;16.00;99.90;;;;;;5112043;27;20043;-53
2023/05/21 06:47:41;;;;;;;12.32;7.38;;;16.10;99.90;;;;;;5103851;28;20051;-56
2023/05/21 06:50:08;;;;;;;14.43;9.05;;;16.20;99.90;;;;;;5114201;28;20039;-54
2023/05/21 06:52:35;;;;;;;11.98;7.45;;;16.30;99.90;;;;;;5113643;28;20069;-54
2023/05/21 06:55:02;;;;;;;12.25;7.68;;;16.50;99.90;;;;;;5115501;27;20398;-54
2023/05/21 06:57:47;;;;;;;10.82;7.43;;;16.50;99.90;;;;;;5106073;27;20051;-57
2023/05/21 07:00:14;;;;;;;14.45;8.27;;;16.50;99.90;;;;;;5110859;27;20059;-57
2023/05/21 07:02:41;;;;;;;;;;;16.40;99.90;;;;;;5118446;27;20402;-54
2023/05/21 07:05:08;;;;;;;12.95;7.72;;;16.30;99.90;;;;;;5106570;27;19919;-54
2023/05/21 07:07:35;;;;;;;10.40;7.28;;;16.20;99.90;;;;;;5109001;28;20043;-54
2023/05/21 07:10:02;;;;;;;9.93;7.22;;;16.20;99.90;;;;;;5108216;27;20050;-54
2023/05/21 07:12:29;;;;;;;12.40;7.80;;;16.20;99.90;;;;;;5117200;27;20786;-56
2023/05/21 07:14:56;;;;;;;12.90;7.70;;;16.40;99.90;;;;;;5113380;28;20491;-54
2023/05/21 07:17:25;;;;;;;11.63;7.55;;;16.50;99.90;;;;;;5106114;28;20040;-54
2023/05/21 07:19:52;;;;;;;12.50;7.47;;;16.80;99.90;;;;;;5115256;27;20085;-54
2023/05/21 07:22:19;;;;;;;9.93;7.50;;;17.10;99.90;;;;;;5117941;27;20045;-54
2023/05/21 07:24:45;;;;;;;12.27;7.32;;;17.40;99.90;;;;;;5124393;27;20395;-54
2023/05/21 07:27:12;;;;;;;13.55;6.68;;;17.80;99.90;;;;;;5109272;27;20051;-54
2023/05/21 07:29:52;;;;;;;11.65;7.28;;;18.00;99.90;;;;;;5114147;27;20071;-54
2023/05/21 07:32:20;;;;;;;10.25;6.65;;;18.30;99.90;;;;;;5108991;27;20044;-54
2023/05/21 07:34:47;;;;;;;11.05;6.30;;;18.40;99.90;;;;;;5115565;27;20276;-57
2023/05/21 07:37:14;;;;;;;12.75;7.60;;;18.40;99.90;;;;;;5114141;28;20066;-57
2023/05/21 07:39:41;;;;;;;8.73;6.50;;;18.70;99.90;;;;;;5107880;28;20047;-56
2023/05/21 07:42:09;;;;;;;10.65;6.97;;;19.10;99.90;;;;;;5105057;28;20034;-54
2023/05/21 07:44:36;;;;;;;8.55;6.07;;;19.40;99.90;;;;;;5096529;28;20067;-57
2023/05/21 07:47:03;;;;;;;10.25;6.47;;;19.40;99.90;;;;;;5111096;27;20470;-54
2023/05/21 07:49:30;;;;;;;10.10;6.30;;;19.70;99.90;;;;;;5115490;28;20502;-55
2023/05/21 07:51:57;;;;;;;8.40;6.18;;;20.00;99.90;;;;;;5115070;27;20619;-53
2023/05/21 07:54:24;;;;;;;10.70;6.07;;;20.30;99.90;;;;;;5116870;27;20043;-55
2023/05/21 07:56:51;;;;;;;7.88;6.22;;;20.30;99.90;;;;;;5105726;28;20046;-54
2023/05/21 07:59:41;;;;;;;7.95;6.15;;;20.50;99.90;;;;;;5114596;28;20201;-54
2023/05/21 08:02:08;;;;;;;9.07;6.03;;;20.60;99.90;;;;;;5103234;28;20043;-54
2023/05/21 08:04:35;;;;;;;8.68;5.93;;;20.80;99.90;;;;;;5110622;27;20053;-55
2023/05/21 08:07:06;;;;;;;6.97;5.82;;;21.10;99.90;;;;;;5107855;27;20039;-54
2023/05/21 08:09:33;;;;;;;8.05;6.60;;;21.30;99.90;;;;;;5111669;27;20052;-54
2023/05/21 08:12:00;;;;;;;9.23;5.90;;;21.60;99.20;;;;;;5105803;27;20078;-54
2023/05/21 08:14:27;;;;;;;7.95;5.72;;;21.50;99.10;;;;;;5110268;27;20127;-54
2023/05/21 08:16:53;;;;;;;8.30;6.53;;;21.40;98.50;;;;;;5116081;27;20080;-54
2023/05/21 08:19:20;;;;;;;;;;;21.20;98.90;;;;;;5107749;27;20119;-55
2023/05/21 08:21:47;;;;;;;10.70;6.00;;;21.30;98.80;;;;;;5115935;27;20432;-54
2023/05/21 08:24:17;;;;;;;10.65;7.20;;;21.40;98.70;;;;;;5110761;28;20039;-54
2023/05/21 08:26:46;;;;;;;9.95;6.30;;;21.50;97.80;;;;;;5107657;28;20135;-55
2023/05/21 08:29:12;;;;;;;9.75;6.18;;;21.70;97.80;;;;;;5099798;27;20403;-54
2023/05/21 08:31:40;;;;;;;9.02;6.22;;;21.80;97.20;;;;;;5115989;27;20053;-54
2023/05/21 08:34:07;;;;;;;10.65;6.45;;;21.90;97.30;;;;;;5107451;27;20067;-54
2023/05/21 08:36:42;;;;;;;9.38;6.05;;;21.90;96.40;;;;;;5107271;28;20051;-57
2023/05/21 08:39:24;;;;;;;10.23;6.40;;;21.80;96.80;;;;;;5109854;27;20118;-54
2023/05/21 08:42:00;;;;;;;8.55;6.25;;;22.00;96.80;;;;;;5109476;27;20035;-55
2023/05/21 08:44:31;;;;;;;7.75;5.90;;;22.30;97.50;;;;;;5102098;27;20495;-54
2023/05/21 08:46:58;;;;;;;12.15;6.72;;;22.60;96.20;;;;;;5132291;27;20417;-54
2023/05/21 08:49:29;;;;;;;10.80;6.20;;;22.80;97.00;;;;;;5111602;27;20674;-54
2023/05/21 08:51:57;;;;;;;7.72;5.95;;;23.00;97.00;;;;;;5114357;27;20410;-54
2023/05/21 08:54:24;;;;;;;6.88;6.00;;;23.10;94.20;;;;;;5115307;27;20051;-55
2023/05/21 08:56:52;;;;;;;8.45;6.28;;;23.10;94.70;;;;;;5110929;27;20044;-54
2023/05/21 08:59:20;;;;;;;9.57;6.40;;;23.00;93.50;;;;;;5134317;27;20085;-56
2023/05/21 09:01:48;;;;;;;8.68;6.22;;;22.90;93.40;;;;;;5107034;27;20122;-56
2023/05/21 09:04:22;;;;;;;8.63;6.22;;;23.20;94.30;;;;;;5107152;27;20109;-55
2023/05/21 09:06:53;;;;;;;8.45;5.88;;;23.30;94.00;;;;;;5106499;27;20089;-56
2023/05/21 09:10:11;;;;;;;9.52;5.90;;;23.20;93.20;;;;;;5127440;27;20063;-54
2023/05/21 09:12:38;;;;;;;11.38;6.57;;;23.10;94.90;;;;;;5105791;27;20039;-54
2023/05/21 09:15:06;;;;;;;9.65;6.85;;;23.10;93.80;;;;;;5125570;27;20039;-54
2023/05/21 09:17:35;;;;;;;10.45;6.47;;;23.00;94.70;;;;;;5109072;27;20049;-58
2023/05/21 09:20:26;;;;;;;8.65;6.18;;;22.90;94.10;;;;;;5121809;27;20046;-54
2023/05/21 09:23:02;;;;;;;8.05;6.32;;;23.00;94.20;;;;;;5100961;27;20057;-55
2023/05/21 09:25:30;;;;;;;12.63;7.07;;;23.10;94.70;;;;;;5124880;27;20045;-55
2023/05/21 09:28:02;;;;;;;10.93;6.63;;;23.10;93.80;;;;;;5110494;27;20043;-54
2023/05/21 09:30:28;;;;;;;10.85;6.63;;;23.30;94.50;;;;;;5113523;27;20126;-55
2023/05/21 09:33:02;;;;;;;9.90;7.05;;;23.50;93.60;;;;;;5108200;27;20078;-57
2023/05/21 09:35:29;;;;;;;9.07;6.28;;;23.70;93.60;;;;;;5106322;27;20127;-55
2023/05/21 09:37:56;;;;;;;10.35;6.53;;;23.90;93.10;;;;;;5108170;27;20085;-54
2023/05/21 09:40:23;;;;;;;9.57;6.90;;;24.00;92.20;;;;;;5108104;27;20050;-57
2023/05/21 09:42:51;;;;;;;9.15;6.50;;;23.80;90.90;;;;;;5108036;27;20039;-54
2023/05/21 09:45:26;;;;;;;9.50;6.72;;;24.20;93.20;;;;;;5103806;27;20105;-55
2023/05/21 09:47:56;;;;;;;9.52;6.35;;;24.50;93.40;;;;;;5107324;27;20040;-54
2023/05/21 09:50:26;;;;;;;8.43;7.13;;;24.60;91.00;;;;;;5112024;27;20081;-54
2023/05/21 09:52:54;;;;;;;9.55;6.25;;;24.80;89.90;;;;;;5124603;27;20039;-55
2023/05/21 09:55:22;;;;;;;11.23;6.30;;;25.10;90.60;;;;;;5123095;27;20032;-55
2023/05/21 09:57:50;;;;;;;9.38;6.30;;;25.30;90.60;;;;;;5123671;27;20055;-56
2023/05/21 10:00:22;;;;;;;12.00;6.18;;;25.50;86.30;;;;;;5123685;27;20047;-57
2023/05/21 10:03:06;;;;;;;8.60;6.32;;;25.80;86.60;;;;;;5127570;27;20125;-56
2023/05/21 10:05:33;;;;;;;11.27;6.50;;;25.80;85.70;;;;;;5125893;27;20071;-55
2023/05/21 10:08:01;;;;;;;;;;;25.80;88.00;;;;;;5123645;27;20043;-54
2023/05/21 10:10:30;;;;;;;11.85;6.13;;;25.80;86.50;;;;;;5126773;27;19955;-56
2023/05/21 10:13:07;;;;;;;7.95;6.03;;;25.70;84.10;;;;;;5129583;27;20491;-54
2023/05/21 10:15:39;;;;;;;9.27;6.43;;;25.70;82.00;;;;;;5125958;27;20399;-56
2023/05/21 10:18:09;;;;;;;6.38;5.63;;;25.80;80.90;;;;;;5124070;27;20051;-55
2023/05/21 10:20:36;;;;;;;7.40;5.45;;;25.90;77.50;;;;;;5128665;27;20571;-54
2023/05/21 10:23:05;;;;;;;8.85;5.63;;;26.10;77.80;;;;;;5127846;27;20042;-56
2023/05/21 10:25:32;;;;;;;6.65;5.50;;;26.40;77.20;;;;;;5121949;27;20057;-55
2023/05/21 10:27:58;;;;;;;6.40;5.65;;;26.40;76.60;;;;;;5127132;27;20043;-54
2023/05/21 10:30:25;;;;;;;7.75;5.78;;;26.40;72.80;;;;;;5128430;27;20066;-54
2023/05/21 10:32:55;;;;;;;6.18;4.90;;;26.30;70.50;;;;;;5125124;27;20046;-56
2023/05/21 10:35:23;;;;;;;10.00;5.68;;;26.30;70.40;;;;;;5127477;27;20127;-54
2023/05/21 10:37:51;;;;;;;7.32;5.40;;;26.40;69.90;;;;;;5124992;27;20042;-56
2023/05/21 10:40:18;;;;;;;6.57;5.32;;;26.30;68.40;;;;;;5121389;27;20043;-58
2023/05/21 10:42:59;;;;;;;6.00;5.35;;;26.60;67.40;;;;;;5126109;27;20507;-55
2023/05/21 10:46:08;;;;;;;8.70;4.97;;;26.80;67.10;;;;;;5128986;27;20039;-54
2023/05/21 10:48:56;;;;;;;6.22;5.15;;;27.00;65.20;;;;;;5124724;27;20043;-55
2023/05/21 10:51:25;;;;;;;;;;;27.30;65.60;;;;;;5124790;28;20054;-58
2023/05/21 10:54:04;;;;;;;8.50;5.90;;;27.30;64.00;;;;;;5126578;28;19923;-56
2023/05/21 10:56:41;;;;;;;5.32;4.78;;;27.50;66.10;;;;;;5123877;28;20070;-55
2023/05/21 10:59:11;;;;;;;6.60;5.27;;;27.40;68.20;;;;;;5121970;28;20028;-56
2023/05/21 11:01:39;;;;;;;7.03;5.18;;;27.00;64.50;;;;;;5124686;28;20913;-56
2023/05/21 11:04:06;;;;;;;5.28;4.55;;;26.70;63.80;;;;;;5123942;27;20043;-55
2023/05/21 11:06:33;;;;;;;;;;;26.80;63.10;;;;;;5128050;28;20043;-54
2023/05/21 11:09:10;;;;;;;9.38;5.25;;;27.10;65.20;;;;;;5123556;28;19919;-57
2023/05/21 11:11:57;;;;;;;7.13;4.90;;;27.20;64.90;;;;;;5124195;28;20038;-54
2023/05/21 11:14:26;;;;;;;8.18;5.00;;;27.60;62.50;;;;;;5123814;27;20101;-56
2023/05/21 11:16:54;;;;;;;7.00;5.05;;;27.40;58.50;;;;;;5123827;28;20403;-53
2023/05/21 11:19:21;;;;;;;7.65;5.15;;;27.50;61.90;;;;;;5105618;28;20031;-54
2023/05/21 11:21:50;;;;;;;5.75;4.97;;;27.30;57.40;;;;;;5124375;28;20460;-53
2023/05/21 11:24:19;;;;;;;6.07;4.82;;;27.40;58.40;;;;;;5124899;28;20511;-53
2023/05/21 11:27:01;;;;;;;6.35;4.70;;;27.70;60.00;;;;;;5125968;28;20059;-53
2023/05/21 11:29:39;;;;;;;5.72;4.72;;;27.70;57.50;;;;;;5124141;28;20043;-53
2023/05/21 11:32:08;;;;;;;7.53;5.45;;;27.90;61.90;;;;;;5123390;27;20047;-53
2023/05/21 11:34:45;;;;;;;5.75;4.93;;;27.80;57.00;;;;;;5125928;28;20035;-56
2023/05/21 11:37:23;;;;;;;9.00;5.47;;;28.30;57.60;;;;;;5125747;28;20044;-53
2023/05/21 11:39:51;;;;;;;7.35;4.70;;;28.20;56.90;;;;;;5125241;27;20039;-55
2023/05/21 11:42:37;;;;;;;7.07;5.30;;;28.30;58.40;;;;;;5127807;27;20048;-53
2023/05/21 11:45:04;;;;;;;6.93;5.03;;;28.00;57.50;;;;;;5128528;27;20110;-53
2023/05/21 11:47:31;;;;;;;6.25;4.85;;;28.10;57.60;;;;;;5115192;27;20130;-53
2023/05/21 11:50:00;;;;;;;6.95;4.68;;;28.20;57.00;;;;;;5126867;27;20069;-53
2023/05/21 11:52:31;;;;;;;8.68;4.95;;;27.50;54.60;;;;;;5132602;27;20533;-56
2023/05/21 11:54:58;;;;;;;5.63;4.43;;;27.30;56.60;;;;;;5126003;27;20051;-53
2023/05/21 11:57:29;;;;;;;;;;;27.30;56.30;;;;;;5115636;28;20055;-53
2023/05/21 12:00:00;;;;;;;4.97;4.20;;;27.20;56.40;;;;;;5114319;28;19920;-56
2023/05/21 12:02:31;;;;;;;4.95;3.78;;;27.60;54.90;;;;;;5127652;27;20079;-53
2023/05/21 12:04:59;;;;;;;7.18;4.80;;;28.00;55.10;;;;;;5122461;27;20070;-53
2023/05/21 12:07:29;;;;;;;7.05;4.63;;;28.20;55.90;;;;;;5118852;27;20039;-53
2023/05/21 12:09:56;;;;;;;7.63;5.50;;;28.30;56.40;;;;;;5126818;27;20058;-53
2023/05/21 12:12:25;;;;;;;7.13;4.53;;;28.10;53.00;;;;;;5118785;27;20050;-56
2023/05/21 12:15:01;;;;;;;7.40;5.35;;;28.10;53.90;;;;;;5114931;27;20043;-53
2023/05/21 12:17:30;;;;;;;6.35;4.88;;;28.40;54.70;;;;;;5115075;27;20040;-53
2023/05/21 12:19:57;;;;;;;7.60;4.50;;;28.30;56.70;;;;;;5127180;27;20040;-55
2023/05/21 12:22:26;;;;;;;5.57;4.63;;;28.20;56.30;;;;;;5114953;27;20040;-54
2023/05/21 12:24:53;;;;;;;7.35;4.43;;;28.20;57.30;;;;;;5114271;28;20062;-54
2023/05/21 12:27:20;;;;;;;;;;;28.60;55.50;;;;;;5123122;27;20055;-54
2023/05/21 12:29:49;;;;;;;5.90;4.38;;;29.10;54.70;;;;;;5123573;27;19920;-54
2023/05/21 12:32:16;;;;;;;6.53;4.60;;;29.40;55.40;;;;;;5120796;27;20483;-53
2023/05/21 12:34:48;;;;;;;9.13;4.57;;;29.60;55.50;;;;;;5120404;27;20057;-54
2023/05/21 12:37:19;;;;;;;5.90;4.90;;;29.90;53.80;;;;;;5134779;27;20047;-53
2023/05/21 12:39:51;;;;;;;6.78;4.68;;;30.30;58.30;;;;;;5127995;27;20051;-53
2023/05/21 12:42:29;;;;;;;4.78;4.05;;;30.20;53.70;;;;;;5113959;28;20092;-53
2023/05/21 12:44:56;;;;;;;5.32;4.45;;;30.00;53.50;;;;;;5122537;27;20039;-55
2023/05/21 12:47:27;;;;;;;6.43;4.35;;;29.40;53.10;;;;;;5129314;27;20535;-53
2023/05/21 12:49:58;;;;;;;6.50;4.75;;;29.20;53.10;;;;;;5122574;27;20043;-56
2023/05/21 12:52:26;;;;;;;5.22;4.68;;;28.70;53.20;;;;;;5128699;27;20043;-53
2023/05/21 12:54:57;;;;;;;5.80;4.75;;;28.10;55.70;;;;;;5131558;27;20055;-55